Time;durP1;ratioP1;P1;durP2;ratioP2;P2;SDS_P1;SDS_P2;PMS_P1;PMS_P2;Temp;Humidity;BMP_temperature;BMP_pressure;BME280_temperature;BME280_humidity;BME280_pressure;Samples;Min_cycle;Max_cycle;Signal;HPM_P1;HPM_P2
2022/02/03 00:01:26;;;;;;;29.20;4.45;;;;;;;3.10;55.90;101763.84;5014327;28;20037;-73
2022/02/03 00:04:02;;;;;;;17.63;3.92;;;;;;;3.57;54.67;101763.22;4969747;28;20088;-72
2022/02/03 00:06:45;;;;;;;10.93;2.28;;;;;;;3.80;53.98;101759.84;5004665;28;20099;-73
2022/02/03 00:28:22;;;;;;;15.55;3.05;;;;;;;3.67;55.70;101739.97;4985639;28;20053;-72
2022/02/03 00:49:26;;;;;;;19.98;3.20;;;;;;;3.80;56.49;101741.75;5002726;28;20112;-72
2022/02/03 00:51:58;;;;;;;7.75;3.10;;;;;;;3.68;57.63;101741.72;5003556;28;20030;-72
2022/02/03 00:54:24;;;;;;;13.82;3.97;;;;;;;3.79;57.32;101737.44;5001556;28;20076;-71
2022/02/03 00:57:01;;;;;;;15.82;3.50;;;;;;;3.88;57.16;101742.63;4993207;28;20044;-71
2022/02/03 00:59:34;;;;;;;12.38;3.75;;;;;;;4.06;56.88;101733.19;5003972;28;20709;-71
2022/02/03 01:02:05;;;;;;;14.38;3.03;;;;;;;3.92;57.32;101741.78;5002883;28;20038;-71
2022/02/03 01:04:31;;;;;;;10.80;3.15;;;;;;;4.02;56.85;101733.16;5021887;28;20295;-72
2022/02/03 01:06:58;;;;;;;10.60;3.70;;;;;;;3.88;57.37;101723.66;5020475;28;20040;-71
2022/02/03 01:09:30;;;;;;;12.25;2.85;;;;;;;3.72;57.93;101725.38;4995107;28;20053;-72
2022/02/03 01:33:46;;;;;;;10.05;4.55;;;;;;;3.85;58.47;101714.19;4976225;28;20053;-75
2022/02/03 01:44:52;;;;;;;8.13;3.20;;;;;;;3.85;58.26;101692.63;5007911;28;20092;-73
2022/02/03 01:47:31;;;;;;;7.45;3.65;;;;;;;3.36;60.38;101693.41;5014342;28;20041;-73
2022/02/03 01:52:39;;;;;;;9.48;5.60;;;;;;;3.97;58.22;101688.31;5009275;28;20067;-73
2022/02/03 01:55:08;;;;;;;10.93;4.13;;;;;;;3.83;58.77;101684.88;5028021;28;20033;-74
2022/02/03 01:57:45;;;;;;;7.07;3.78;;;;;;;3.95;58.39;101681.44;5025212;28;20044;-73
2022/02/03 02:00:15;;;;;;;11.25;4.35;;;;;;;3.56;59.56;101673.63;5030540;28;20192;-73
2022/02/03 02:03:07;;;;;;;7.50;3.78;;;;;;;4.00;58.37;101670.19;5008104;28;20111;-73
2022/02/03 02:05:47;;;;;;;10.50;4.18;;;;;;;3.78;58.93;101655.53;5019868;28;20054;-74
2022/02/03 02:08:37;;;;;;;10.80;3.63;;;;;;;3.90;59.11;101652.13;5008048;28;20037;-74
2022/02/03 02:11:25;;;;;;;9.38;3.22;;;;;;;4.09;58.53;101643.47;5008739;28;20034;-72
2022/02/03 02:39:48;;;;;;;10.10;5.35;;;;;;;4.25;58.45;101615.84;4955837;28;20117;-72
2022/02/03 02:45:10;;;;;;;9.57;4.40;;;;;;;4.23;58.76;101602.09;5009201;28;20061;-72
2022/02/03 02:47:44;;;;;;;10.10;5.82;;;;;;;4.06;59.50;101603.81;5008232;28;20498;-73
2022/02/03 02:50:26;;;;;;;10.25;5.53;;;;;;;4.34;58.56;101597.75;5008185;28;20033;-73
2022/02/03 02:53:13;;;;;;;12.57;4.68;;;;;;;4.45;58.45;101591.66;5025660;28;20545;-73
2022/02/03 02:56:12;;;;;;;8.45;4.45;;;;;;;4.51;58.43;101595.09;5039965;28;20225;-73
2022/02/03 03:34:51;;;;;;;11.25;5.80;;;;;;;4.51;60.33;101545.91;5005081;28;20053;-75
2022/02/03 03:37:27;;;;;;;12.27;6.00;;;;;;;4.68;59.63;101543.25;4997880;28;20136;-75
2022/02/03 03:39:58;;;;;;;14.02;5.45;;;;;;;4.74;59.26;101543.19;4995492;28;20349;-75
2022/02/03 03:42:30;;;;;;;13.77;6.22;;;;;;;4.70;59.71;101536.34;5005971;28;20044;-75
2022/02/03 03:44:59;;;;;;;17.77;6.10;;;;;;;4.87;59.16;101543.16;5011675;28;20566;-75
2022/02/03 03:47:29;;;;;;;16.52;6.22;;;;;;;4.46;60.40;101537.31;5011004;28;20059;-74
2022/02/03 03:50:18;;;;;;;16.88;6.88;;;;;;;4.58;60.61;101526.03;5003474;28;20112;-73
2022/02/03 03:52:59;;;;;;;16.92;6.63;;;;;;;4.94;59.64;101519.81;5002479;28;20042;-73
2022/02/03 04:56:14;;;;;;;28.00;9.65;;;;;;;5.63;60.53;101456.19;5004717;28;20049;-70
2022/02/03 05:05:54;;;;;;;39.75;10.85;;;;;;;5.75;60.38;101450.00;5002811;28;20109;-74
2022/02/03 05:08:28;;;;;;;41.30;14.35;;;;;;;5.95;59.88;101442.00;5000029;28;20042;-75
2022/02/03 05:11:42;;;;;;;38.15;13.23;;;;;;;5.51;61.11;101441.63;5003655;28;20047;-71
2022/02/03 05:44:28;;;;;;;45.65;17.40;;;;;;;5.71;61.38;101392.16;5009705;28;20037;-73
2022/02/03 06:08:35;;;;;;;43.10;15.82;;;;;;;5.92;59.77;101357.28;5001396;28;20517;-73
2022/02/03 06:14:30;;;;;;;42.30;14.73;;;;;;;5.78;60.03;101365.25;5001148;28;20018;-72
2022/02/03 06:16:58;;;;;;;49.15;17.08;;;;;;;5.90;60.16;101373.75;4996684;28;20057;-73
2022/02/03 06:22:43;;;;;;;40.03;16.42;;;;;;;5.08;62.84;101381.53;5001942;28;20466;-73
2022/02/03 06:27:37;;;;;;;43.95;16.98;;;;;;;5.82;60.49;101387.69;5004019;28;20037;-73
2022/02/03 06:30:04;;;;;;;42.15;15.68;;;;;;;5.10;62.80;101396.22;5005711;28;20144;-72
2022/02/03 06:32:30;;;;;;;33.17;15.18;;;;;;;5.46;61.90;101394.16;5021402;28;20045;-74
2022/02/03 06:34:55;;;;;;;32.83;12.88;;;;;;;5.29;62.42;101402.09;4990584;28;20130;-72
2022/02/03 06:37:22;;;;;;;38.50;15.07;;;;;;;5.08;63.12;101400.56;5005296;28;20144;-70
2022/02/03 06:39:48;;;;;;;35.75;15.05;;;;;;;5.45;62.10;101398.47;5004416;28;20495;-69
2022/02/03 06:42:13;;;;;;;35.17;15.00;;;;;;;5.11;62.83;101397.06;5012514;28;20045;-73
2022/02/03 06:44:43;;;;;;;37.38;15.98;;;;;;;5.38;62.32;101395.94;4986467;28;20038;-72
2022/02/03 06:47:24;;;;;;;31.15;13.68;;;;;;;5.66;61.20;101399.97;4989839;28;20502;-70
2022/02/03 06:50:05;;;;;;;30.75;13.55;;;;;;;5.46;61.92;101394.16;5010992;28;20063;-74
2022/02/03 06:52:50;;;;;;;33.65;14.30;;;;;;;5.80;60.90;101391.19;5004285;28;20168;-75
2022/02/03 07:00:16;;;;;;;27.50;12.13;;;;;;;5.11;63.42;101377.19;5005930;28;20590;-75
2022/02/03 07:02:44;;;;;;;27.52;12.73;;;;;;;5.48;61.65;101379.44;5015621;28;20067;-74
2022/02/03 07:05:10;;;;;;;25.23;12.25;;;;;;;5.65;61.27;101377.50;5025703;28;20522;-74
2022/02/03 07:07:40;;;;;;;24.38;12.95;;;;;;;5.16;62.69;101383.19;5019651;28;20104;-75
2022/02/03 07:10:11;;;;;;;29.55;12.60;;;;;;;5.56;61.73;101374.16;5007210;28;20080;-75
2022/02/03 07:12:37;;;;;;;26.33;12.63;;;;;;;5.39;62.50;101370.03;5004689;28;20042;-73
2022/02/03 07:15:05;;;;;;;25.35;10.80;;;;;;;5.29;62.53;101370.13;5017442;28;20049;-71
2022/02/03 07:17:31;;;;;;;30.75;15.23;;;;;;;4.83;63.91;101364.47;5019388;28;20429;-71
2022/02/03 07:20:02;;;;;;;27.60;13.38;;;;;;;5.29;62.69;101370.97;5006517;28;20634;-72
2022/02/03 07:22:27;;;;;;;34.42;14.95;;;;;;;5.73;61.35;101361.00;5003694;28;20442;-72
2022/02/03 07:24:53;;;;;;;35.88;15.70;;;;;;;5.53;61.21;101363.84;5003099;28;20040;-72
2022/02/03 07:27:22;;;;;;;38.03;16.77;;;;;;;5.66;60.94;101355.03;5003660;28;20094;-72
2022/02/03 07:29:50;;;;;;;41.30;18.05;;;;;;;5.87;60.74;101359.09;5003723;28;20038;-73
2022/02/03 07:32:16;;;;;;;35.30;16.02;;;;;;;5.07;63.00;101365.13;5002524;28;20550;-72
2022/02/03 07:34:41;;;;;;;38.58;18.20;;;;;;;5.78;61.10;101360.06;5008638;28;20375;-72
2022/02/03 07:37:07;;;;;;;49.13;18.63;;;;;;;5.22;62.61;101362.41;5004470;28;20052;-72
2022/02/03 07:39:33;;;;;;;45.75;18.27;;;;;;;5.06;63.25;101368.63;5001152;28;20034;-71
2022/02/03 07:41:59;;;;;;;45.72;19.02;;;;;;;5.14;63.08;101366.78;5005322;28;20048;-72
2022/02/03 07:44:25;;;;;;;43.08;18.70;;;;;;;5.33;62.63;101356.28;5002027;28;20029;-73
2022/02/03 07:46:51;;;;;;;47.35;19.20;;;;;;;5.52;61.91;101354.31;5018658;28;20041;-72
2022/02/03 07:49:17;;;;;;;51.00;20.33;;;;;;;5.41;61.88;101349.25;5004425;28;20049;-74
2022/02/03 07:51:43;;;;;;;52.75;21.08;;;;;;;4.99;63.31;101346.25;5004216;28;20033;-73
2022/02/03 07:54:11;;;;;;;43.13;19.38;;;;;;;5.47;61.85;101341.41;5010567;28;20033;-74
2022/02/03 07:56:39;;;;;;;44.10;20.05;;;;;;;5.25;62.70;101339.03;5005184;28;20481;-73
2022/02/03 07:59:05;;;;;;;49.38;19.83;;;;;;;5.35;62.20;101337.22;5004930;28;20047;-73
2022/02/03 08:01:31;;;;;;;52.25;20.65;;;;;;;5.79;60.91;101334.97;5005047;28;20033;-76
2022/02/03 08:03:58;;;;;;;52.67;19.67;;;;;;;5.30;62.38;101320.88;5004531;28;20574;-74
2022/02/03 08:06:31;;;;;;;51.22;21.42;;;;;;;5.74;61.15;101326.41;5021835;28;20076;-74
2022/02/03 08:09:04;;;;;;;54.42;19.80;;;;;;;5.60;61.32;101327.44;5031369;28;20111;-73
2022/02/03 08:11:35;;;;;;;57.50;21.88;;;;;;;5.42;61.52;101327.66;5014796;28;20499;-74
2022/02/03 08:16:58;;;;;;;61.07;22.83;;;;;;;5.52;61.71;101329.25;5002641;28;20080;-74
2022/02/03 08:21:48;;;;;;;72.45;22.45;;;;;;;5.05;63.33;101320.25;5003693;28;20142;-74
2022/02/03 08:24:25;;;;;;;57.60;22.20;;;;;;;4.98;63.18;101324.63;5037986;28;20088;-74
2022/02/03 08:27:36;;;;;;;64.70;23.90;;;;;;;5.25;62.41;101310.53;5026516;28;20114;-74
2022/02/03 08:32:47;;;;;;;61.38;23.63;;;;;;;5.25;62.73;101310.53;5003493;28;20128;-74
2022/02/03 08:35:22;;;;;;;67.43;26.33;;;;;;;5.24;62.79;101300.19;5018408;28;20029;-73
2022/02/03 08:40:42;;;;;;;66.78;24.88;;;;;;;5.34;61.98;101311.31;5002967;28;20344;-74
2022/02/03 08:43:09;;;;;;;65.10;24.75;;;;;;;5.67;61.42;101300.53;5002385;28;20668;-74
2022/02/03 08:45:34;;;;;;;71.60;25.75;;;;;;;5.72;60.87;101302.22;5003025;28;20456;-74
2022/02/03 08:48:00;;;;;;;73.65;24.98;;;;;;;5.22;62.28;101300.22;5000768;28;20033;-74
2022/02/03 08:50:27;;;;;;;76.47;27.00;;;;;;;5.44;61.58;101293.06;4998871;28;20034;-74
2022/02/03 08:53:00;;;;;;;72.05;24.02;;;;;;;5.33;62.32;101299.25;5006246;28;20111;-74
2022/02/03 09:32:28;;;;;;;64.68;24.95;;;;;;;5.01;62.23;101303.91;5018534;28;20036;-73
2022/02/03 09:57:19;;;;;;;58.17;21.83;;;;;;;5.42;60.90;101301.72;4987633;28;20605;-72
2022/02/03 10:00:04;;;;;;;;;;;;;;;4.92;62.46;101304.00;5004487;28;20129;-73
2022/02/03 10:02:32;;;;;;;55.40;20.58;;;;;;;5.04;61.93;101305.59;5000984;28;19922;-73
2022/02/03 10:05:11;;;;;;;51.47;22.58;;;;;;;5.14;61.67;101307.19;5005743;28;20034;-73
2022/02/03 10:07:38;;;;;;;54.83;22.23;;;;;;;4.93;61.91;101315.19;5011111;28;20123;-73
2022/02/03 10:10:11;;;;;;;50.17;20.27;;;;;;;5.54;60.14;101319.72;5006305;28;20037;-73
2022/02/03 10:12:45;;;;;;;48.55;19.70;;;;;;;4.96;62.02;101323.78;5006061;28;20060;-72
2022/02/03 10:15:12;;;;;;;43.97;18.98;;;;;;;5.25;60.90;101320.91;5005037;28;20141;-73
2022/02/03 10:17:40;;;;;;;44.10;19.45;;;;;;;5.29;60.53;101318.28;5007135;28;20442;-73
2022/02/03 10:20:10;;;;;;;50.17;18.13;;;;;;;4.91;61.90;101322.13;5005992;28;20072;-73
2022/02/03 10:22:51;;;;;;;43.08;19.35;;;;;;;4.46;62.70;101313.84;5010636;28;20283;-73
2022/02/03 10:25:28;;;;;;;45.53;16.90;;;;;;;4.94;61.85;101307.38;5025509;28;20036;-73
2022/02/03 10:28:00;;;;;;;35.72;16.75;;;;;;;4.32;63.04;101296.69;5001450;28;20044;-74
2022/02/03 10:30:35;;;;;;;39.08;15.68;;;;;;;5.46;59.95;101300.81;5021957;28;20025;-73
2022/02/03 10:33:01;;;;;;;36.60;16.73;;;;;;;4.33;63.09;101292.34;5017011;28;20316;-73
2022/02/03 10:35:43;;;;;;;31.00;15.95;;;;;;;5.09;60.67;101293.44;5032651;28;20041;-73
2022/02/03 11:07:28;;;;;;;26.17;12.55;;;;;;;4.94;60.83;101260.75;5024352;28;20304;-73
2022/02/03 11:10:07;;;;;;;30.20;13.52;;;;;;;5.23;60.40;101259.59;5015147;28;20033;-72
2022/02/03 11:12:33;;;;;;;32.22;13.32;;;;;;;5.22;60.52;101263.94;5040288;28;20038;-73
2022/02/03 11:14:59;;;;;;;24.50;13.20;;;;;;;4.18;63.45;101267.44;5025182;28;21964;-72
2022/02/03 11:17:26;;;;;;;25.77;12.23;;;;;;;4.98;61.30;101249.50;5024585;28;20570;-73
2022/02/03 11:19:56;;;;;;;27.45;12.25;;;;;;;4.81;62.12;101247.06;5020387;28;20402;-72
2022/02/03 11:22:29;;;;;;;24.10;12.63;;;;;;;4.95;61.32;101235.75;5023863;28;20044;-71
2022/02/03 11:25:16;;;;;;;31.58;12.38;;;;;;;5.11;60.94;101224.31;5021828;28;20497;-72
2022/02/03 11:50:54;;;;;;;20.63;10.93;;;;;;;5.89;58.03;101175.75;5019010;28;20028;-73
2022/02/03 12:02:09;;;;;;;25.25;10.40;;;;;;;6.15;56.84;101164.06;5019106;28;20219;-73
2022/02/03 12:05:42;;;;;;;21.70;9.70;;;;;;;5.34;58.84;101158.38;5013544;28;20596;-73
2022/02/03 12:16:15;;;;;;;24.35;10.80;;;;;;;5.14;58.86;101143.94;5020460;28;20098;-73
2022/02/03 12:21:28;;;;;;;20.75;10.00;;;;;;;5.23;59.24;101128.31;5021372;28;20877;-73
2022/02/03 12:24:22;;;;;;;19.98;11.30;;;;;;;5.46;58.87;101134.91;5019341;28;20048;-73
2022/02/03 12:27:01;;;;;;;17.85;9.95;;;;;;;5.35;58.57;101121.25;5018807;28;20475;-73
2022/02/03 12:29:39;;;;;;;25.33;11.05;;;;;;;4.87;59.97;101118.38;5021167;28;20499;-73
2022/02/03 12:32:28;;;;;;;20.08;9.55;;;;;;;5.52;58.48;101110.59;5009426;28;20057;-73
2022/02/03 12:42:55;;;;;;;24.90;11.45;;;;;;;5.11;59.49;101106.88;5020729;28;20045;-73
2022/02/03 12:45:24;;;;;;;26.38;10.52;;;;;;;5.47;57.89;101100.31;5019238;28;20138;-73
2022/02/03 12:47:57;;;;;;;26.33;10.95;;;;;;;4.87;59.77;101108.00;5018199;28;20103;-73
2022/02/03 12:50:27;;;;;;;18.70;11.13;;;;;;;5.22;59.08;101095.47;5013007;28;20494;-73
2022/02/03 12:52:55;;;;;;;19.58;9.82;;;;;;;5.07;59.44;101106.03;5020168;28;20099;-71
2022/02/03 12:55:21;;;;;;;21.13;10.82;;;;;;;4.58;61.01;101101.44;5029552;28;20067;-72
2022/02/03 12:57:49;;;;;;;22.48;11.40;;;;;;;5.00;60.45;101109.59;5021088;28;20053;-72
2022/02/03 13:00:31;;;;;;;25.98;10.90;;;;;;;4.63;61.12;101107.41;5038319;28;20105;-72
2022/02/03 13:03:02;;;;;;;25.60;12.00;;;;;;;4.55;61.11;101101.50;5023512;28;20033;-72
2022/02/03 13:05:33;;;;;;;19.73;10.70;;;;;;;4.77;61.09;101092.59;5022021;28;20056;-72
2022/02/03 13:08:00;;;;;;;19.05;10.13;;;;;;;4.74;60.64;101092.59;5037840;28;20045;-73
2022/02/03 13:10:31;;;;;;;20.20;11.05;;;;;;;5.16;59.46;101094.72;5020915;28;20029;-72
2022/02/03 13:13:37;;;;;;;21.05;10.10;;;;;;;5.11;59.12;101086.16;5023241;28;20049;-72
2022/02/03 13:16:12;;;;;;;19.98;10.52;;;;;;;4.97;59.90;101073.38;5022555;28;20529;-72
2022/02/03 13:18:47;;;;;;;20.17;10.93;;;;;;;4.62;60.97;101072.06;5019985;28;20137;-72
2022/02/03 13:22:04;;;;;;;20.65;10.93;;;;;;;4.90;60.07;101061.38;5025323;28;20041;-72
2022/02/03 13:26:43;;;;;;;21.02;10.05;;;;;;;4.70;60.42;101064.19;5021233;28;20033;-73
2022/02/03 13:29:16;;;;;;;24.40;11.40;;;;;;;4.77;59.92;101053.75;5022739;28;20409;-72
2022/02/03 13:31:53;;;;;;;24.38;11.10;;;;;;;5.21;58.95;101060.09;5021020;28;20033;-73
2022/02/03 13:36:56;;;;;;;24.60;11.10;;;;;;;4.94;58.88;101068.22;5021698;28;21489;-73
2022/02/03 13:39:35;;;;;;;32.70;11.15;;;;;;;5.10;58.87;101056.78;5029743;28;20120;-73
2022/02/03 13:42:12;;;;;;;18.33;9.63;;;;;;;4.72;59.66;101058.13;5021100;28;20087;-73
2022/02/03 13:44:38;;;;;;;20.10;10.68;;;;;;;5.25;58.69;101053.97;5021694;28;20037;-73
2022/02/03 13:47:22;;;;;;;21.05;10.63;;;;;;;5.12;58.89;101056.75;5023051;28;20037;-73
2022/02/03 13:50:23;;;;;;;23.00;11.90;;;;;;;5.55;57.48;101045.75;5022301;28;20036;-72
2022/02/03 13:53:10;;;;;;;16.13;8.57;;;;;;;5.45;57.67;101050.22;4996672;28;20493;-72
2022/02/03 14:20:36;;;;;;;20.08;8.32;;;;;;;5.18;58.19;101018.66;5021363;28;20080;-72
2022/02/03 14:28:09;;;;;;;15.60;9.15;;;;;;;5.54;57.64;101011.16;5021428;28;20090;-72
2022/02/03 14:30:37;;;;;;;17.77;8.30;;;;;;;4.96;59.02;101004.31;5007058;28;20049;-72
2022/02/03 14:33:03;;;;;;;13.43;8.00;;;;;;;4.87;59.76;101005.25;5006157;28;20040;-73
2022/02/03 14:35:29;;;;;;;16.55;7.82;;;;;;;4.91;59.87;101006.13;5017725;28;20033;-72
2022/02/03 14:40:36;;;;;;;15.23;9.10;;;;;;;5.22;58.62;101007.38;5007851;28;20398;-72
2022/02/03 14:43:04;;;;;;;15.73;9.15;;;;;;;5.00;59.66;101011.16;5020016;28;20187;-72
2022/02/03 14:45:30;;;;;;;23.00;8.82;;;;;;;5.04;59.49;101012.84;5007770;28;20051;-72
2022/02/03 14:47:55;;;;;;;12.82;7.78;;;;;;;5.33;58.96;101008.94;5005714;28;20029;-72
2022/02/03 14:50:22;;;;;;;17.55;10.07;;;;;;;4.86;60.33;100997.53;5006860;28;20101;-72
2022/02/03 14:53:08;;;;;;;12.32;8.43;;;;;;;5.11;59.42;101003.25;5006906;28;20119;-74
2022/02/03 15:00:48;;;;;;;17.52;7.70;;;;;;;4.75;60.98;101006.28;5011731;28;20022;-72
2022/02/03 15:03:14;;;;;;;17.02;8.88;;;;;;;5.02;59.92;100999.03;5010189;28;20075;-73
2022/02/03 15:05:40;;;;;;;13.38;7.93;;;;;;;4.88;60.55;100991.47;5016819;28;20390;-72
2022/02/03 15:08:16;;;;;;;15.90;8.05;;;;;;;4.84;60.17;100989.78;5014681;28;20375;-73
2022/02/03 15:10:45;;;;;;;16.63;8.10;;;;;;;4.87;60.22;100994.06;5008301;28;20116;-73
2022/02/03 15:13:18;;;;;;;14.90;7.93;;;;;;;4.49;60.82;100996.28;5019251;28;20343;-72
2022/02/03 15:15:44;;;;;;;18.08;7.70;;;;;;;5.29;58.46;100992.56;5020674;28;20126;-73
2022/02/03 15:18:09;;;;;;;17.52;8.27;;;;;;;5.17;58.99;100985.88;5019326;28;20049;-72
2022/02/03 15:20:37;;;;;;;13.75;8.60;;;;;;;4.92;59.65;100982.78;5020999;28;20037;-73
2022/02/03 15:23:04;;;;;;;15.77;7.47;;;;;;;4.99;59.75;100984.41;5017765;28;20041;-72
2022/02/03 15:25:30;;;;;;;19.35;8.00;;;;;;;5.28;58.67;100979.63;5020335;28;20040;-72
2022/02/03 15:27:57;;;;;;;16.95;7.70;;;;;;;5.08;59.63;100975.66;5019306;28;20131;-72
2022/02/03 15:30:23;;;;;;;14.02;7.28;;;;;;;4.95;59.44;100974.13;5024970;28;20057;-73
2022/02/03 15:32:49;;;;;;;16.83;7.88;;;;;;;5.27;58.97;100980.53;5018364;28;20175;-73
2022/02/03 15:35:25;;;;;;;14.15;8.15;;;;;;;4.67;60.72;100966.69;5025852;28;20118;-72
2022/02/03 15:37:52;;;;;;;13.73;7.18;;;;;;;4.75;60.49;100959.69;5015289;28;22200;-72
2022/02/03 15:40:23;;;;;;;13.98;7.55;;;;;;;5.00;59.26;100957.59;5021565;28;20136;-73
2022/02/03 15:42:55;;;;;;;13.18;7.22;;;;;;;5.16;59.15;100957.38;5023973;28;20349;-73
2022/02/03 15:45:20;;;;;;;15.38;7.47;;;;;;;4.80;59.96;100963.06;5021481;28;20037;-73
2022/02/03 15:47:54;;;;;;;14.02;6.90;;;;;;;4.82;59.99;100958.72;5015872;28;20179;-73
2022/02/03 15:50:57;;;;;;;12.10;7.00;;;;;;;4.61;60.72;100961.63;5013914;28;20021;-73
2022/02/03 16:00:04;;;;;;;14.15;6.63;;;;;;;5.04;59.00;100971.38;4954361;28;20034;-73
2022/02/03 16:17:27;;;;;;;9.82;5.35;;;;;;;4.86;58.54;100971.63;5019065;28;20053;-73
2022/02/03 16:20:11;;;;;;;9.38;4.47;;;;;;;5.26;57.95;100966.72;5022026;28;20085;-73
2022/02/03 16:52:45;;;;;;;5.85;3.53;;;;;;;5.17;57.09;100936.63;5026368;28;20510;-73
2022/02/03 16:55:15;;;;;;;6.20;3.95;;;;;;;4.57;58.37;100937.50;5020334;28;20474;-74
2022/02/03 16:57:41;;;;;;;6.95;4.22;;;;;;;4.54;59.01;100931.50;5021030;28;20077;-74
2022/02/03 17:00:12;;;;;;;8.95;4.63;;;;;;;5.04;57.32;100932.53;5022586;28;20768;-74
2022/02/03 17:02:38;;;;;;;8.73;4.78;;;;;;;4.14;59.82;100939.78;5018546;28;20087;-74
2022/02/03 17:05:04;;;;;;;6.85;4.38;;;;;;;4.87;58.12;100934.47;5021050;28;20545;-74
2022/02/03 17:07:29;;;;;;;7.60;4.20;;;;;;;5.04;57.48;100950.66;5025379;28;20122;-76
2022/02/03 17:09:56;;;;;;;6.47;4.22;;;;;;;5.25;56.83;100950.28;5019351;28;20505;-74
2022/02/03 17:12:22;;;;;;;10.57;3.95;;;;;;;5.08;57.11;100944.56;5018314;28;20560;-74
2022/02/03 17:14:48;;;;;;;7.80;4.57;;;;;;;5.40;56.38;100950.94;5021828;28;20070;-74
2022/02/03 17:17:15;;;;;;;10.00;4.32;;;;;;;5.23;56.62;100939.13;5020506;28;20045;-74
2022/02/03 17:19:41;;;;;;;9.00;4.72;;;;;;;4.95;57.49;100924.91;5018849;28;20045;-74
2022/02/03 17:22:10;;;;;;;7.55;4.05;;;;;;;5.12;57.25;100935.81;5018274;28;20464;-73
2022/02/03 17:24:38;;;;;;;7.00;4.55;;;;;;;5.23;56.79;100936.53;5019607;28;20045;-73
2022/02/03 17:27:14;;;;;;;7.85;4.93;;;;;;;5.23;56.60;100939.13;5005016;28;20259;-74
2022/02/03 18:17:58;;;;;;;14.13;6.68;;;;;;;5.01;58.30;100942.91;5019768;28;20075;-74
2022/02/03 18:33:46;;;;;;;12.90;6.93;;;;;;;4.19;61.01;100938.84;5019674;28;20041;-75
2022/02/03 18:36:13;;;;;;;15.48;7.18;;;;;;;4.89;58.99;100937.94;5002076;28;20129;-74
2022/02/03 18:52:24;;;;;;;18.52;8.13;;;;;;;4.38;60.63;100926.53;5004779;28;20032;-74
2022/02/03 19:24:49;;;;;;;24.85;8.70;;;;;;;4.64;59.86;100935.69;5037346;28;20135;-75
2022/02/03 20:02:44;;;;;;;16.75;8.48;;;;;;;4.69;59.61;100949.41;5022272;28;20036;-75
2022/02/03 20:07:24;;;;;;;23.05;9.70;;;;;;;4.73;59.37;100948.50;5023151;28;20700;-75
2022/02/03 20:10:28;;;;;;;21.80;9.60;;;;;;;4.22;61.36;100943.97;5009504;28;20071;-74
2022/02/03 20:12:42;;;;;;;18.30;9.02;;;;;;;5.02;59.02;100939.47;5017048;28;20047;-76
2022/02/03 20:15:09;;;;;;;23.67;9.32;;;;;;;4.70;60.08;100940.78;5011070;28;20037;-75
2022/02/03 20:17:35;;;;;;;24.80;11.25;;;;;;;4.79;59.25;100939.78;5028048;28;20049;-76
2022/02/03 20:20:01;;;;;;;23.77;10.70;;;;;;;4.51;60.36;100942.75;5021390;28;20059;-75
2022/02/03 20:22:32;;;;;;;24.02;10.60;;;;;;;4.45;60.86;100948.00;5021516;28;20052;-75
2022/02/03 20:24:57;;;;;;;23.25;11.60;;;;;;;4.38;60.74;100934.28;5021507;28;20033;-75
2022/02/03 20:27:23;;;;;;;25.73;11.85;;;;;;;4.60;59.97;100929.69;5017488;28;20041;-75
2022/02/03 20:29:49;;;;;;;23.98;11.75;;;;;;;4.38;60.55;100929.13;4985861;28;20461;-75
2022/02/03 20:32:17;;;;;;;22.95;10.23;;;;;;;4.57;60.38;100926.28;5018105;28;20038;-75
2022/02/03 20:34:43;;;;;;;27.95;10.98;;;;;;;3.95;61.86;100929.66;5015401;28;20041;-75
2022/02/03 20:37:09;;;;;;;25.27;10.85;;;;;;;4.52;60.44;100925.47;5005885;28;20041;-75
2022/02/03 20:39:36;;;;;;;30.50;9.90;;;;;;;4.63;60.05;100929.66;5001302;28;20029;-75
2022/02/03 20:42:02;;;;;;;24.85;11.07;;;;;;;4.70;59.86;100929.53;5017824;28;20057;-75
2022/02/03 20:44:28;;;;;;;26.17;11.13;;;;;;;4.64;60.13;100927.91;5008706;28;20038;-75
2022/02/03 20:46:54;;;;;;;20.98;10.38;;;;;;;4.43;60.59;100924.75;5001594;28;20029;-75
2022/02/03 20:49:21;;;;;;;22.75;11.18;;;;;;;4.88;59.04;100921.56;5028058;28;20107;-74
2022/02/03 20:51:48;;;;;;;27.45;11.52;;;;;;;4.73;59.59;100913.97;5021104;28;20055;-75
2022/02/03 20:54:14;;;;;;;26.50;11.30;;;;;;;5.04;58.92;100919.56;5020309;28;20391;-75
2022/02/03 20:56:39;;;;;;;21.90;9.88;;;;;;;4.80;59.04;100911.25;5018143;28;20044;-75
2022/02/03 20:59:08;;;;;;;23.30;11.45;;;;;;;4.57;59.81;100901.25;5007033;28;20489;-75
2022/02/03 21:01:36;;;;;;;22.77;10.60;;;;;;;4.08;61.53;100909.69;5000910;28;20471;-75
2022/02/03 21:04:14;;;;;;;28.65;13.10;;;;;;;4.57;59.99;100909.03;4999938;28;20046;-75
2022/02/03 21:06:40;;;;;;;24.50;12.75;;;;;;;4.79;59.21;100898.34;4998625;28;20550;-75
2022/02/03 21:09:08;;;;;;;19.13;10.27;;;;;;;5.08;58.38;100895.34;5004161;28;20034;-76
2022/02/03 21:11:34;;;;;;;25.52;12.15;;;;;;;4.64;59.54;100900.28;5000367;28;20309;-75
2022/02/03 21:14:02;;;;;;;25.67;11.48;;;;;;;4.74;59.41;100882.00;5007410;28;20087;-75
2022/02/03 21:16:29;;;;;;;22.55;10.27;;;;;;;4.76;59.20;100881.09;5002596;28;20545;-75
2022/02/03 21:18:55;;;;;;;22.75;11.45;;;;;;;4.98;58.20;100883.41;5015023;28;20041;-75
2022/02/03 21:21:21;;;;;;;37.67;18.42;;;;;;;4.90;58.76;100877.47;5002988;28;20255;-76
2022/02/03 21:23:46;;;;;;;20.33;10.90;;;;;;;4.49;59.69;100879.78;5005167;28;20041;-75
2022/02/03 21:26:28;;;;;;;22.42;10.68;;;;;;;4.80;58.98;100879.34;5001786;28;20095;-76
2022/02/03 21:28:53;;;;;;;24.17;11.73;;;;;;;4.96;58.67;100887.75;5004688;28;20041;-76
2022/02/03 21:31:19;;;;;;;21.00;10.23;;;;;;;4.76;59.15;100883.69;5003995;28;20573;-76
2022/02/03 21:33:48;;;;;;;25.88;11.00;;;;;;;4.68;59.24;100880.41;5014466;28;20045;-76
2022/02/03 21:36:16;;;;;;;23.50;10.85;;;;;;;4.05;61.17;100880.41;5012534;28;20068;-76
2022/02/03 21:38:42;;;;;;;28.50;10.43;;;;;;;4.49;60.03;100878.94;5001739;28;20038;-76
2022/02/03 21:41:11;;;;;;;26.40;10.50;;;;;;;4.47;59.79;100886.72;5037911;28;20037;-75
2022/02/03 21:43:37;;;;;;;21.92;10.40;;;;;;;4.27;60.48;100893.91;5010286;28;20049;-76
2022/02/03 21:46:04;;;;;;;27.88;12.40;;;;;;;4.81;59.11;100887.09;4999832;28;20044;-76
2022/02/03 21:48:30;;;;;;;26.55;10.40;;;;;;;4.86;58.48;100891.34;5018161;28;20390;-76
2022/02/03 21:50:59;;;;;;;25.00;10.45;;;;;;;4.32;60.10;100895.59;4999957;28;20029;-76
2022/02/03 21:53:29;;;;;;;27.52;11.90;;;;;;;4.63;59.73;100892.53;5012031;28;20175;-75
2022/02/03 21:55:56;;;;;;;20.33;10.40;;;;;;;4.80;59.21;100894.88;5028350;28;20026;-75
2022/02/03 21:58:25;;;;;;;28.60;11.50;;;;;;;4.83;58.77;100900.00;5010967;28;20049;-76
2022/02/03 22:00:54;;;;;;;22.60;10.95;;;;;;;4.96;58.61;100895.50;5002835;28;20033;-75
2022/02/03 22:03:21;;;;;;;21.98;10.80;;;;;;;4.96;58.27;100890.34;5014755;28;20410;-75
2022/02/03 22:05:46;;;;;;;28.00;13.02;;;;;;;4.77;59.09;100879.41;5006872;28;20420;-75
2022/02/03 22:08:12;;;;;;;21.90;11.13;;;;;;;4.35;60.39;100887.75;5007520;28;20033;-73
2022/02/03 22:10:38;;;;;;;26.98;11.35;;;;;;;4.42;60.44;100886.78;5008600;28;20111;-76
2022/02/03 22:13:03;;;;;;;22.27;11.05;;;;;;;4.94;58.90;100886.91;5015557;28;20036;-75
2022/02/03 22:15:29;;;;;;;25.27;11.45;;;;;;;4.94;58.71;100881.72;5033872;28;20048;-75
2022/02/03 22:17:55;;;;;;;23.80;11.25;;;;;;;4.53;60.07;100885.78;5042260;28;20281;-76
2022/02/03 22:23:09;;;;;;;23.75;12.10;;;;;;;4.37;60.77;100887.75;5022345;28;20109;-73
2022/02/03 22:39:02;;;;;;;21.73;11.23;;;;;;;3.82;62.25;100878.97;5025255;28;20141;-76
2022/02/03 22:44:09;;;;;;;26.17;11.30;;;;;;;4.01;61.79;100892.53;5022924;28;20459;-74
2022/02/03 22:49:04;;;;;;;30.38;11.55;;;;;;;4.56;60.02;100885.75;5004641;28;20574;-74
2022/02/03 22:51:35;;;;;;;31.83;12.00;;;;;;;4.89;59.16;100883.56;5004510;28;20130;-73
2022/02/03 22:54:00;;;;;;;24.40;11.02;;;;;;;4.89;58.78;100886.16;5006483;28;20049;-73
2022/02/03 22:56:27;;;;;;;32.55;12.10;;;;;;;4.84;58.88;100881.84;5006082;28;20052;-73
2022/02/03 23:01:30;;;;;;;28.23;11.77;;;;;;;4.39;60.05;100879.09;5007434;28;20132;-74